Lochearnhead, United Kingdom
Current Conditions -  °F | °C
As of 12:20 PM on Thursday 30 Oct 2014 (Local Time) from EGPF Reporting Station
Haze Haze  
Wind Chill: 50°   Ceiling: 200
Heat Index: 50°   Visibility: 2.6mi
Dew Point: 50°   Wind: 2mph
Humidity: 100%   Direction: 50°NE
Pressure: 29.88"   Gusts: NA
Location:  56.39°N, 4.29°W
Report Text: EGPF 301220Z AUTO 05002KT 4200 BR OVC002 10/10 Q1012
Loading
Personal Weather Stations






























Interactive Weather Map
Tropical Storm Tracking
New forecast layout! Learn more

10-Day Weather Forecast

Advertisements
Track Severe Weather on mobile